Dauntless Aviation
Airports North America Mexico

Fausto Vega Santander Airport

MEXICO

Airport Info
Suggest Updated Information for this Airport

Location

Latitude / Longitude: 20°56'48"N / 97°22'30"W
  20°56.808'N / 97°22.506'W
  20.9468 / -97.3751
Satellite photo at:
Airport distance calculator
From:
Weather Reports

METAR

TAF

MMPA
27.3nm S
TAF MMPA 101720Z 1018/1118 36010KT 5SM HZ SCT015 BKN030 OVC070 BECMG 1020/1021 36012KT FM110200 28005KT 6SM HZ BKN020 OVC070 FM111000 27005KT 3SM BR HZ BKN015 OVC040 FM111500 34005KT 27005KT 5SM HZ BKN015 BKN040
Safelog

 

Dauntless Aviation

© 2007-2018 Dauntless Aviation, all rights reserved
Information provided via PilotNav comes from a variety of official and unofficial data sources. As errors are possible, do not use PilotNav for primary flight planning purposes. Verify any information that you receive via PilotNav with current and canonical charts and other official documents. The material in this database is subject to database copyrights held by Dauntless Aviation and may not be copied without the express permission of Dauntless Aviation - licenses for use of part of all of this data are available for purchase; enquire via the Dauntless Aviation helpdesk. A number of mechanisms and markers exist in the database to protect against and identify infringement / copyright. Automated queries against this website are stictly prohibited, and all activity is logged and analyzed.